<?xml version="1.0" encoding="UTF-8" standalone="no" ?>
<gpx xmlns="http://www.topografix.com/GPX/1/1" xmlns:xsi="http://www.w3.org/2001/XMLSchema-instance" xsi:schemaLocation="http://www.topografix.com/GPX/1/1 http://www.topografix.com/GPX/1/1/gpx.xsd" version="1.1" creator="VisuGPX - https://www.visugpx.com">
  <metadata>
    <name>Les Monges</name>
  </metadata>
  <wpt lat="44.29251" lon="6.18263">
    <ele>1425</ele>
    <name><![CDATA[Parking d'accès au lac des Monges]]></name>
  </wpt>
  <wpt lat="44.28144" lon="6.18308">
    <ele>1550</ele>
    <name><![CDATA[Bout du lac]]></name>
  </wpt>
  <wpt lat="44.28066" lon="6.18823">
    <ele>1583</ele>
    <name><![CDATA[Carrefour GR sentier]]></name>
  </wpt>
  <wpt lat="44.26888" lon="6.19602">
    <ele>1883</ele>
    <name><![CDATA[Gorges du Pradon]]></name>
  </wpt>
  <wpt lat="44.26943" lon="6.20752">
    <ele>1767</ele>
    <name><![CDATA[Lacet GR6]]></name>
  </wpt>
  <wpt lat="44.27083" lon="6.20298">
    <ele>1700</ele>
    <name><![CDATA[Cabane de Clapouse]]></name>
  </wpt>
  <wpt lat="44.29249" lon="6.18264">
    <ele>1425</ele>
    <name><![CDATA[Parking d'accès au lac des Monges]]></name>
  </wpt>
  <trk>
    <name><![CDATA[Les Monges]]></name>
    <trkseg>
      <trkpt lat="44.29251" lon="6.18263">
        <ele>1425</ele>
        <time>2021-06-15T22:58:04+02:00</time>
      </trkpt>
      <trkpt lat="44.29234" lon="6.18269">
        <ele>1427</ele>
        <time>2021-06-15T22:58:09+02:00</time>
      </trkpt>
      <trkpt lat="44.29216" lon="6.18263">
        <ele>1430</ele>
        <time>2021-06-15T22:58:14+02:00</time>
      </trkpt>
      <trkpt lat="44.29192" lon="6.18256">
        <ele>1435</ele>
        <time>2021-06-15T22:58:19+02:00</time>
      </trkpt>
      <trkpt lat="44.29182" lon="6.18254">
        <ele>1436</ele>
        <time>2021-06-15T22:58:24+02:00</time>
      </trkpt>
      <trkpt lat="44.29168" lon="6.1826">
        <ele>1438</ele>
        <time>2021-06-15T22:58:29+02:00</time>
      </trkpt>
      <trkpt lat="44.29165" lon="6.18278">
        <ele>1436</ele>
        <time>2021-06-15T22:58:34+02:00</time>
      </trkpt>
      <trkpt lat="44.29165" lon="6.18312">
        <ele>1433</ele>
        <time>2021-06-15T22:58:39+02:00</time>
      </trkpt>
      <trkpt lat="44.29155" lon="6.18339">
        <ele>1434</ele>
        <time>2021-06-15T22:58:44+02:00</time>
      </trkpt>
      <trkpt lat="44.2916" lon="6.18373">
        <ele>1433</ele>
        <time>2021-06-15T22:58:49+02:00</time>
      </trkpt>
      <trkpt lat="44.29162" lon="6.18404">
        <ele>1434</ele>
        <time>2021-06-15T22:58:54+02:00</time>
      </trkpt>
      <trkpt lat="44.29155" lon="6.18403">
        <ele>1435</ele>
        <time>2021-06-15T22:58:59+02:00</time>
      </trkpt>
      <trkpt lat="44.29113" lon="6.18401">
        <ele>1445</ele>
        <time>2021-06-15T22:59:04+02:00</time>
      </trkpt>
      <trkpt lat="44.29096" lon="6.18396">
        <ele>1450</ele>
        <time>2021-06-15T22:59:09+02:00</time>
      </trkpt>
      <trkpt lat="44.29047" lon="6.18341">
        <ele>1465</ele>
        <time>2021-06-15T22:59:14+02:00</time>
      </trkpt>
      <trkpt lat="44.29024" lon="6.18345">
        <ele>1472</ele>
        <time>2021-06-15T22:59:19+02:00</time>
      </trkpt>
      <trkpt lat="44.28999" lon="6.18366">
        <ele>1476</ele>
        <time>2021-06-15T22:59:24+02:00</time>
      </trkpt>
      <trkpt lat="44.28982" lon="6.18368">
        <ele>1477</ele>
        <time>2021-06-15T22:59:29+02:00</time>
      </trkpt>
      <trkpt lat="44.28966" lon="6.18358">
        <ele>1480</ele>
        <time>2021-06-15T22:59:34+02:00</time>
      </trkpt>
      <trkpt lat="44.28956" lon="6.18323">
        <ele>1486</ele>
        <time>2021-06-15T22:59:39+02:00</time>
      </trkpt>
      <trkpt lat="44.28955" lon="6.18304">
        <ele>1489</ele>
        <time>2021-06-15T22:59:44+02:00</time>
      </trkpt>
      <trkpt lat="44.28955" lon="6.18276">
        <ele>1492</ele>
        <time>2021-06-15T22:59:49+02:00</time>
      </trkpt>
      <trkpt lat="44.28939" lon="6.18253">
        <ele>1498</ele>
        <time>2021-06-15T22:59:54+02:00</time>
      </trkpt>
      <trkpt lat="44.28944" lon="6.1824">
        <ele>1498</ele>
        <time>2021-06-15T22:59:59+02:00</time>
      </trkpt>
      <trkpt lat="44.28924" lon="6.18233">
        <ele>1503</ele>
        <time>2021-06-15T23:00:04+02:00</time>
      </trkpt>
      <trkpt lat="44.28901" lon="6.1825">
        <ele>1502</ele>
        <time>2021-06-15T23:00:09+02:00</time>
      </trkpt>
      <trkpt lat="44.28889" lon="6.18278">
        <ele>1497</ele>
        <time>2021-06-15T23:00:14+02:00</time>
      </trkpt>
      <trkpt lat="44.2888" lon="6.18268">
        <ele>1498</ele>
        <time>2021-06-15T23:00:19+02:00</time>
      </trkpt>
      <trkpt lat="44.28875" lon="6.18257">
        <ele>1499</ele>
        <time>2021-06-15T23:00:24+02:00</time>
      </trkpt>
      <trkpt lat="44.28855" lon="6.18244">
        <ele>1500</ele>
        <time>2021-06-15T23:00:29+02:00</time>
      </trkpt>
      <trkpt lat="44.28869" lon="6.18143">
        <ele>1514</ele>
        <time>2021-06-15T23:00:34+02:00</time>
      </trkpt>
      <trkpt lat="44.28825" lon="6.18161">
        <ele>1515</ele>
        <time>2021-06-15T23:00:39+02:00</time>
      </trkpt>
      <trkpt lat="44.28799" lon="6.18179">
        <ele>1514</ele>
        <time>2021-06-15T23:00:44+02:00</time>
      </trkpt>
      <trkpt lat="44.28787" lon="6.18204">
        <ele>1511</ele>
        <time>2021-06-15T23:00:49+02:00</time>
      </trkpt>
      <trkpt lat="44.28764" lon="6.18217">
        <ele>1511</ele>
        <time>2021-06-15T23:00:54+02:00</time>
      </trkpt>
      <trkpt lat="44.28741" lon="6.18224">
        <ele>1513</ele>
        <time>2021-06-15T23:00:59+02:00</time>
      </trkpt>
      <trkpt lat="44.28729" lon="6.18206">
        <ele>1518</ele>
        <time>2021-06-15T23:01:04+02:00</time>
      </trkpt>
      <trkpt lat="44.28721" lon="6.18172">
        <ele>1524</ele>
        <time>2021-06-15T23:01:09+02:00</time>
      </trkpt>
      <trkpt lat="44.28717" lon="6.18157">
        <ele>1528</ele>
        <time>2021-06-15T23:01:14+02:00</time>
      </trkpt>
      <trkpt lat="44.28709" lon="6.18142">
        <ele>1531</ele>
        <time>2021-06-15T23:01:19+02:00</time>
      </trkpt>
      <trkpt lat="44.28686" lon="6.18125">
        <ele>1538</ele>
        <time>2021-06-15T23:01:24+02:00</time>
      </trkpt>
      <trkpt lat="44.28672" lon="6.18116">
        <ele>1541</ele>
        <time>2021-06-15T23:01:29+02:00</time>
      </trkpt>
      <trkpt lat="44.28658" lon="6.18116">
        <ele>1543</ele>
        <time>2021-06-15T23:01:34+02:00</time>
      </trkpt>
      <trkpt lat="44.28646" lon="6.18129">
        <ele>1543</ele>
        <time>2021-06-15T23:01:39+02:00</time>
      </trkpt>
      <trkpt lat="44.28638" lon="6.18144">
        <ele>1542</ele>
        <time>2021-06-15T23:01:44+02:00</time>
      </trkpt>
      <trkpt lat="44.2861" lon="6.18161">
        <ele>1542</ele>
        <time>2021-06-15T23:01:49+02:00</time>
      </trkpt>
      <trkpt lat="44.28591" lon="6.18167">
        <ele>1535</ele>
        <time>2021-06-15T23:01:54+02:00</time>
      </trkpt>
      <trkpt lat="44.28567" lon="6.18196">
        <ele>1542</ele>
        <time>2021-06-15T23:01:59+02:00</time>
      </trkpt>
      <trkpt lat="44.28547" lon="6.18202">
        <ele>1543</ele>
        <time>2021-06-15T23:02:04+02:00</time>
      </trkpt>
      <trkpt lat="44.28497" lon="6.18204">
        <ele>1546</ele>
        <time>2021-06-15T23:02:09+02:00</time>
      </trkpt>
      <trkpt lat="44.2849" lon="6.18205">
        <ele>1546</ele>
        <time>2021-06-15T23:02:14+02:00</time>
      </trkpt>
      <trkpt lat="44.28474" lon="6.18208">
        <ele>1547</ele>
        <time>2021-06-15T23:02:19+02:00</time>
      </trkpt>
      <trkpt lat="44.28454" lon="6.18209">
        <ele>1548</ele>
        <time>2021-06-15T23:02:24+02:00</time>
      </trkpt>
      <trkpt lat="44.28437" lon="6.18212">
        <ele>1549</ele>
        <time>2021-06-15T23:02:29+02:00</time>
      </trkpt>
      <trkpt lat="44.28418" lon="6.18217">
        <ele>1549</ele>
        <time>2021-06-15T23:02:34+02:00</time>
      </trkpt>
      <trkpt lat="44.28406" lon="6.18217">
        <ele>1550</ele>
        <time>2021-06-15T23:02:39+02:00</time>
      </trkpt>
      <trkpt lat="44.28387" lon="6.18216">
        <ele>1550</ele>
        <time>2021-06-15T23:02:44+02:00</time>
      </trkpt>
      <trkpt lat="44.2837" lon="6.18215">
        <ele>1550</ele>
        <time>2021-06-15T23:02:49+02:00</time>
      </trkpt>
      <trkpt lat="44.28345" lon="6.18213">
        <ele>1551</ele>
        <time>2021-06-15T23:02:54+02:00</time>
      </trkpt>
      <trkpt lat="44.28312" lon="6.18208">
        <ele>1552</ele>
        <time>2021-06-15T23:02:59+02:00</time>
      </trkpt>
      <trkpt lat="44.28295" lon="6.18205">
        <ele>1552</ele>
        <time>2021-06-15T23:03:04+02:00</time>
      </trkpt>
      <trkpt lat="44.2828" lon="6.18206">
        <ele>1552</ele>
        <time>2021-06-15T23:03:09+02:00</time>
      </trkpt>
      <trkpt lat="44.28269" lon="6.18208">
        <ele>1551</ele>
        <time>2021-06-15T23:03:14+02:00</time>
      </trkpt>
      <trkpt lat="44.28261" lon="6.18205">
        <ele>1551</ele>
        <time>2021-06-15T23:03:19+02:00</time>
      </trkpt>
      <trkpt lat="44.28255" lon="6.18206">
        <ele>1551</ele>
        <time>2021-06-15T23:03:24+02:00</time>
      </trkpt>
      <trkpt lat="44.28245" lon="6.18217">
        <ele>1550</ele>
        <time>2021-06-15T23:03:29+02:00</time>
      </trkpt>
      <trkpt lat="44.28242" lon="6.18231">
        <ele>1549</ele>
        <time>2021-06-15T23:03:34+02:00</time>
      </trkpt>
      <trkpt lat="44.2824" lon="6.18245">
        <ele>1549</ele>
        <time>2021-06-15T23:03:39+02:00</time>
      </trkpt>
      <trkpt lat="44.28238" lon="6.18261">
        <ele>1547</ele>
        <time>2021-06-15T23:03:44+02:00</time>
      </trkpt>
      <trkpt lat="44.28234" lon="6.18272">
        <ele>1546</ele>
        <time>2021-06-15T23:03:49+02:00</time>
      </trkpt>
      <trkpt lat="44.28229" lon="6.18282">
        <ele>1545</ele>
        <time>2021-06-15T23:03:54+02:00</time>
      </trkpt>
      <trkpt lat="44.28211" lon="6.18296">
        <ele>1545</ele>
        <time>2021-06-15T23:03:59+02:00</time>
      </trkpt>
      <trkpt lat="44.28176" lon="6.18308">
        <ele>1547</ele>
        <time>2021-06-15T23:04:04+02:00</time>
      </trkpt>
      <trkpt lat="44.28144" lon="6.18308">
        <ele>1550</ele>
        <time>2021-06-15T23:04:09+02:00</time>
      </trkpt>
      <trkpt lat="44.28117" lon="6.18328">
        <ele>1553</ele>
        <time>2021-06-15T23:04:14+02:00</time>
      </trkpt>
      <trkpt lat="44.2809" lon="6.18363">
        <ele>1557</ele>
        <time>2021-06-15T23:04:19+02:00</time>
      </trkpt>
      <trkpt lat="44.28076" lon="6.18404">
        <ele>1560</ele>
        <time>2021-06-15T23:04:24+02:00</time>
      </trkpt>
      <trkpt lat="44.28077" lon="6.18436">
        <ele>1560</ele>
        <time>2021-06-15T23:04:29+02:00</time>
      </trkpt>
      <trkpt lat="44.28056" lon="6.18499">
        <ele>1562</ele>
        <time>2021-06-15T23:04:34+02:00</time>
      </trkpt>
      <trkpt lat="44.28005" lon="6.18587">
        <ele>1568</ele>
        <time>2021-06-15T23:04:39+02:00</time>
      </trkpt>
      <trkpt lat="44.27987" lon="6.18609">
        <ele>1571</ele>
        <time>2021-06-15T23:04:44+02:00</time>
      </trkpt>
      <trkpt lat="44.27963" lon="6.18643">
        <ele>1574</ele>
        <time>2021-06-15T23:04:49+02:00</time>
      </trkpt>
      <trkpt lat="44.27972" lon="6.18659">
        <ele>1571</ele>
        <time>2021-06-15T23:04:54+02:00</time>
      </trkpt>
      <trkpt lat="44.27991" lon="6.1866">
        <ele>1568</ele>
        <time>2021-06-15T23:04:59+02:00</time>
      </trkpt>
      <trkpt lat="44.28027" lon="6.18651">
        <ele>1565</ele>
        <time>2021-06-15T23:05:04+02:00</time>
      </trkpt>
      <trkpt lat="44.28054" lon="6.18655">
        <ele>1564</ele>
        <time>2021-06-15T23:05:09+02:00</time>
      </trkpt>
      <trkpt lat="44.28087" lon="6.18667">
        <ele>1561</ele>
        <time>2021-06-15T23:05:14+02:00</time>
      </trkpt>
      <trkpt lat="44.28133" lon="6.18681">
        <ele>1564</ele>
        <time>2021-06-15T23:05:19+02:00</time>
      </trkpt>
      <trkpt lat="44.28157" lon="6.18677">
        <ele>1562</ele>
        <time>2021-06-15T23:05:24+02:00</time>
      </trkpt>
      <trkpt lat="44.2817" lon="6.18683">
        <ele>1561</ele>
        <time>2021-06-15T23:05:29+02:00</time>
      </trkpt>
      <trkpt lat="44.28169" lon="6.18696">
        <ele>1563</ele>
        <time>2021-06-15T23:05:34+02:00</time>
      </trkpt>
      <trkpt lat="44.28156" lon="6.18717">
        <ele>1566</ele>
        <time>2021-06-15T23:05:39+02:00</time>
      </trkpt>
      <trkpt lat="44.28151" lon="6.18748">
        <ele>1569</ele>
        <time>2021-06-15T23:05:44+02:00</time>
      </trkpt>
      <trkpt lat="44.28143" lon="6.1876">
        <ele>1571</ele>
        <time>2021-06-15T23:05:49+02:00</time>
      </trkpt>
      <trkpt lat="44.28133" lon="6.18732">
        <ele>1569</ele>
        <time>2021-06-15T23:05:54+02:00</time>
      </trkpt>
      <trkpt lat="44.2812" lon="6.18737">
        <ele>1572</ele>
        <time>2021-06-15T23:05:59+02:00</time>
      </trkpt>
      <trkpt lat="44.28107" lon="6.18756">
        <ele>1575</ele>
        <time>2021-06-15T23:06:04+02:00</time>
      </trkpt>
      <trkpt lat="44.28092" lon="6.18777">
        <ele>1578</ele>
        <time>2021-06-15T23:06:09+02:00</time>
      </trkpt>
      <trkpt lat="44.2808" lon="6.18799">
        <ele>1581</ele>
        <time>2021-06-15T23:06:14+02:00</time>
      </trkpt>
      <trkpt lat="44.28066" lon="6.18823">
        <ele>1583</ele>
        <time>2021-06-15T23:06:19+02:00</time>
      </trkpt>
      <trkpt lat="44.28057" lon="6.18818">
        <ele>1584</ele>
        <time>2021-06-15T23:06:24+02:00</time>
      </trkpt>
      <trkpt lat="44.28044" lon="6.18797">
        <ele>1583</ele>
        <time>2021-06-15T23:06:29+02:00</time>
      </trkpt>
      <trkpt lat="44.2801" lon="6.18804">
        <ele>1586</ele>
        <time>2021-06-15T23:06:34+02:00</time>
      </trkpt>
      <trkpt lat="44.27977" lon="6.18828">
        <ele>1591</ele>
        <time>2021-06-15T23:06:39+02:00</time>
      </trkpt>
      <trkpt lat="44.27948" lon="6.18858">
        <ele>1597</ele>
        <time>2021-06-15T23:06:44+02:00</time>
      </trkpt>
      <trkpt lat="44.27928" lon="6.18894">
        <ele>1606</ele>
        <time>2021-06-15T23:06:49+02:00</time>
      </trkpt>
      <trkpt lat="44.27906" lon="6.18911">
        <ele>1609</ele>
        <time>2021-06-15T23:06:54+02:00</time>
      </trkpt>
      <trkpt lat="44.27891" lon="6.18929">
        <ele>1611</ele>
        <time>2021-06-15T23:06:59+02:00</time>
      </trkpt>
      <trkpt lat="44.27853" lon="6.18929">
        <ele>1609</ele>
        <time>2021-06-15T23:07:04+02:00</time>
      </trkpt>
      <trkpt lat="44.27823" lon="6.18941">
        <ele>1611</ele>
        <time>2021-06-15T23:07:09+02:00</time>
      </trkpt>
      <trkpt lat="44.27798" lon="6.18978">
        <ele>1620</ele>
        <time>2021-06-15T23:07:14+02:00</time>
      </trkpt>
      <trkpt lat="44.278" lon="6.1903">
        <ele>1625</ele>
        <time>2021-06-15T23:07:19+02:00</time>
      </trkpt>
      <trkpt lat="44.27815" lon="6.19086">
        <ele>1630</ele>
        <time>2021-06-15T23:07:24+02:00</time>
      </trkpt>
      <trkpt lat="44.27812" lon="6.19121">
        <ele>1632</ele>
        <time>2021-06-15T23:07:29+02:00</time>
      </trkpt>
      <trkpt lat="44.27803" lon="6.1916">
        <ele>1635</ele>
        <time>2021-06-15T23:07:34+02:00</time>
      </trkpt>
      <trkpt lat="44.27778" lon="6.19202">
        <ele>1637</ele>
        <time>2021-06-15T23:07:39+02:00</time>
      </trkpt>
      <trkpt lat="44.27765" lon="6.19209">
        <ele>1637</ele>
        <time>2021-06-15T23:07:44+02:00</time>
      </trkpt>
      <trkpt lat="44.27737" lon="6.19218">
        <ele>1640</ele>
        <time>2021-06-15T23:07:49+02:00</time>
      </trkpt>
      <trkpt lat="44.2772" lon="6.19207">
        <ele>1639</ele>
        <time>2021-06-15T23:07:54+02:00</time>
      </trkpt>
      <trkpt lat="44.27709" lon="6.19222">
        <ele>1642</ele>
        <time>2021-06-15T23:07:59+02:00</time>
      </trkpt>
      <trkpt lat="44.27701" lon="6.19251">
        <ele>1645</ele>
        <time>2021-06-15T23:08:04+02:00</time>
      </trkpt>
      <trkpt lat="44.27678" lon="6.19264">
        <ele>1648</ele>
        <time>2021-06-15T23:08:09+02:00</time>
      </trkpt>
      <trkpt lat="44.27648" lon="6.19251">
        <ele>1648</ele>
        <time>2021-06-15T23:08:14+02:00</time>
      </trkpt>
      <trkpt lat="44.27642" lon="6.19236">
        <ele>1649</ele>
        <time>2021-06-15T23:08:19+02:00</time>
      </trkpt>
      <trkpt lat="44.2764" lon="6.19229">
        <ele>1650</ele>
        <time>2021-06-15T23:08:24+02:00</time>
      </trkpt>
      <trkpt lat="44.2764" lon="6.1922">
        <ele>1650</ele>
        <time>2021-06-15T23:08:29+02:00</time>
      </trkpt>
      <trkpt lat="44.27641" lon="6.19209">
        <ele>1650</ele>
        <time>2021-06-15T23:08:34+02:00</time>
      </trkpt>
      <trkpt lat="44.27651" lon="6.19199">
        <ele>1648</ele>
        <time>2021-06-15T23:08:39+02:00</time>
      </trkpt>
      <trkpt lat="44.27665" lon="6.19192">
        <ele>1644</ele>
        <time>2021-06-15T23:08:44+02:00</time>
      </trkpt>
      <trkpt lat="44.27664" lon="6.1917">
        <ele>1644</ele>
        <time>2021-06-15T23:08:49+02:00</time>
      </trkpt>
      <trkpt lat="44.27652" lon="6.19118">
        <ele>1650</ele>
        <time>2021-06-15T23:08:54+02:00</time>
      </trkpt>
      <trkpt lat="44.27632" lon="6.19073">
        <ele>1659</ele>
        <time>2021-06-15T23:08:59+02:00</time>
      </trkpt>
      <trkpt lat="44.27637" lon="6.19048">
        <ele>1659</ele>
        <time>2021-06-15T23:09:04+02:00</time>
      </trkpt>
      <trkpt lat="44.27651" lon="6.19026">
        <ele>1657</ele>
        <time>2021-06-15T23:09:09+02:00</time>
      </trkpt>
      <trkpt lat="44.2766" lon="6.18985">
        <ele>1655</ele>
        <time>2021-06-15T23:09:14+02:00</time>
      </trkpt>
      <trkpt lat="44.27665" lon="6.18954">
        <ele>1649</ele>
        <time>2021-06-15T23:09:19+02:00</time>
      </trkpt>
      <trkpt lat="44.2766" lon="6.18939">
        <ele>1648</ele>
        <time>2021-06-15T23:09:24+02:00</time>
      </trkpt>
      <trkpt lat="44.27644" lon="6.18934">
        <ele>1649</ele>
        <time>2021-06-15T23:09:29+02:00</time>
      </trkpt>
      <trkpt lat="44.27615" lon="6.18937">
        <ele>1655</ele>
        <time>2021-06-15T23:09:34+02:00</time>
      </trkpt>
      <trkpt lat="44.27583" lon="6.18941">
        <ele>1661</ele>
        <time>2021-06-15T23:09:39+02:00</time>
      </trkpt>
      <trkpt lat="44.2756" lon="6.18944">
        <ele>1667</ele>
        <time>2021-06-15T23:09:44+02:00</time>
      </trkpt>
      <trkpt lat="44.2754" lon="6.18931">
        <ele>1668</ele>
        <time>2021-06-15T23:09:49+02:00</time>
      </trkpt>
      <trkpt lat="44.27528" lon="6.18897">
        <ele>1664</ele>
        <time>2021-06-15T23:09:54+02:00</time>
      </trkpt>
      <trkpt lat="44.27523" lon="6.18874">
        <ele>1662</ele>
        <time>2021-06-15T23:09:59+02:00</time>
      </trkpt>
      <trkpt lat="44.27507" lon="6.18875">
        <ele>1667</ele>
        <time>2021-06-15T23:10:04+02:00</time>
      </trkpt>
      <trkpt lat="44.27484" lon="6.18885">
        <ele>1673</ele>
        <time>2021-06-15T23:10:09+02:00</time>
      </trkpt>
      <trkpt lat="44.27453" lon="6.18885">
        <ele>1679</ele>
        <time>2021-06-15T23:10:14+02:00</time>
      </trkpt>
      <trkpt lat="44.27448" lon="6.18854">
        <ele>1677</ele>
        <time>2021-06-15T23:10:19+02:00</time>
      </trkpt>
      <trkpt lat="44.27453" lon="6.18836">
        <ele>1674</ele>
        <time>2021-06-15T23:10:24+02:00</time>
      </trkpt>
      <trkpt lat="44.27434" lon="6.18827">
        <ele>1678</ele>
        <time>2021-06-15T23:10:29+02:00</time>
      </trkpt>
      <trkpt lat="44.27413" lon="6.18827">
        <ele>1683</ele>
        <time>2021-06-15T23:10:34+02:00</time>
      </trkpt>
      <trkpt lat="44.27369" lon="6.1883">
        <ele>1694</ele>
        <time>2021-06-15T23:10:39+02:00</time>
      </trkpt>
      <trkpt lat="44.27401" lon="6.18847">
        <ele>1687</ele>
        <time>2021-06-15T23:10:44+02:00</time>
      </trkpt>
      <trkpt lat="44.27389" lon="6.18868">
        <ele>1692</ele>
        <time>2021-06-15T23:10:49+02:00</time>
      </trkpt>
      <trkpt lat="44.27394" lon="6.18909">
        <ele>1694</ele>
        <time>2021-06-15T23:10:54+02:00</time>
      </trkpt>
      <trkpt lat="44.27397" lon="6.18947">
        <ele>1698</ele>
        <time>2021-06-15T23:10:59+02:00</time>
      </trkpt>
      <trkpt lat="44.27393" lon="6.18966">
        <ele>1701</ele>
        <time>2021-06-15T23:11:04+02:00</time>
      </trkpt>
      <trkpt lat="44.27425" lon="6.18986">
        <ele>1697</ele>
        <time>2021-06-15T23:11:09+02:00</time>
      </trkpt>
      <trkpt lat="44.27454" lon="6.19003">
        <ele>1697</ele>
        <time>2021-06-15T23:11:14+02:00</time>
      </trkpt>
      <trkpt lat="44.27471" lon="6.19015">
        <ele>1698</ele>
        <time>2021-06-15T23:11:19+02:00</time>
      </trkpt>
      <trkpt lat="44.27475" lon="6.19032">
        <ele>1700</ele>
        <time>2021-06-15T23:11:24+02:00</time>
      </trkpt>
      <trkpt lat="44.27467" lon="6.19045">
        <ele>1703</ele>
        <time>2021-06-15T23:11:29+02:00</time>
      </trkpt>
      <trkpt lat="44.27445" lon="6.19051">
        <ele>1708</ele>
        <time>2021-06-15T23:11:34+02:00</time>
      </trkpt>
      <trkpt lat="44.27417" lon="6.19085">
        <ele>1718</ele>
        <time>2021-06-15T23:11:39+02:00</time>
      </trkpt>
      <trkpt lat="44.27399" lon="6.19102">
        <ele>1722</ele>
        <time>2021-06-15T23:11:44+02:00</time>
      </trkpt>
      <trkpt lat="44.27383" lon="6.19123">
        <ele>1726</ele>
        <time>2021-06-15T23:11:49+02:00</time>
      </trkpt>
      <trkpt lat="44.27378" lon="6.19158">
        <ele>1728</ele>
        <time>2021-06-15T23:11:54+02:00</time>
      </trkpt>
      <trkpt lat="44.2736" lon="6.1919">
        <ele>1731</ele>
        <time>2021-06-15T23:11:59+02:00</time>
      </trkpt>
      <trkpt lat="44.27348" lon="6.19244">
        <ele>1730</ele>
        <time>2021-06-15T23:12:04+02:00</time>
      </trkpt>
      <trkpt lat="44.27328" lon="6.19258">
        <ele>1735</ele>
        <time>2021-06-15T23:12:09+02:00</time>
      </trkpt>
      <trkpt lat="44.27308" lon="6.19281">
        <ele>1738</ele>
        <time>2021-06-15T23:12:14+02:00</time>
      </trkpt>
      <trkpt lat="44.27295" lon="6.1933">
        <ele>1740</ele>
        <time>2021-06-15T23:12:19+02:00</time>
      </trkpt>
      <trkpt lat="44.27268" lon="6.19373">
        <ele>1744</ele>
        <time>2021-06-15T23:12:24+02:00</time>
      </trkpt>
      <trkpt lat="44.27237" lon="6.19406">
        <ele>1751</ele>
        <time>2021-06-15T23:12:29+02:00</time>
      </trkpt>
      <trkpt lat="44.27216" lon="6.19409">
        <ele>1757</ele>
        <time>2021-06-15T23:12:34+02:00</time>
      </trkpt>
      <trkpt lat="44.27195" lon="6.19441">
        <ele>1760</ele>
        <time>2021-06-15T23:12:39+02:00</time>
      </trkpt>
      <trkpt lat="44.27188" lon="6.19486">
        <ele>1759</ele>
        <time>2021-06-15T23:12:44+02:00</time>
      </trkpt>
      <trkpt lat="44.27183" lon="6.19546">
        <ele>1767</ele>
        <time>2021-06-15T23:12:49+02:00</time>
      </trkpt>
      <trkpt lat="44.272" lon="6.19581">
        <ele>1765</ele>
        <time>2021-06-15T23:12:54+02:00</time>
      </trkpt>
      <trkpt lat="44.2723" lon="6.19604">
        <ele>1763</ele>
        <time>2021-06-15T23:12:59+02:00</time>
      </trkpt>
      <trkpt lat="44.27264" lon="6.19626">
        <ele>1763</ele>
        <time>2021-06-15T23:13:04+02:00</time>
      </trkpt>
      <trkpt lat="44.27301" lon="6.19644">
        <ele>1765</ele>
        <time>2021-06-15T23:13:09+02:00</time>
      </trkpt>
      <trkpt lat="44.27328" lon="6.19655">
        <ele>1765</ele>
        <time>2021-06-15T23:13:14+02:00</time>
      </trkpt>
      <trkpt lat="44.27341" lon="6.19673">
        <ele>1767</ele>
        <time>2021-06-15T23:13:19+02:00</time>
      </trkpt>
      <trkpt lat="44.27335" lon="6.19693">
        <ele>1770</ele>
        <time>2021-06-15T23:13:24+02:00</time>
      </trkpt>
      <trkpt lat="44.27322" lon="6.19716">
        <ele>1776</ele>
        <time>2021-06-15T23:13:29+02:00</time>
      </trkpt>
      <trkpt lat="44.27311" lon="6.19742">
        <ele>1783</ele>
        <time>2021-06-15T23:13:34+02:00</time>
      </trkpt>
      <trkpt lat="44.27299" lon="6.19765">
        <ele>1790</ele>
        <time>2021-06-15T23:13:39+02:00</time>
      </trkpt>
      <trkpt lat="44.27288" lon="6.19815">
        <ele>1797</ele>
        <time>2021-06-15T23:13:44+02:00</time>
      </trkpt>
      <trkpt lat="44.27283" lon="6.19866">
        <ele>1802</ele>
        <time>2021-06-15T23:13:49+02:00</time>
      </trkpt>
      <trkpt lat="44.27278" lon="6.19903">
        <ele>1805</ele>
        <time>2021-06-15T23:13:54+02:00</time>
      </trkpt>
      <trkpt lat="44.27239" lon="6.19899">
        <ele>1816</ele>
        <time>2021-06-15T23:13:59+02:00</time>
      </trkpt>
      <trkpt lat="44.27193" lon="6.1987">
        <ele>1823</ele>
        <time>2021-06-15T23:14:04+02:00</time>
      </trkpt>
      <trkpt lat="44.27157" lon="6.19865">
        <ele>1828</ele>
        <time>2021-06-15T23:14:09+02:00</time>
      </trkpt>
      <trkpt lat="44.27136" lon="6.19834">
        <ele>1835</ele>
        <time>2021-06-15T23:14:14+02:00</time>
      </trkpt>
      <trkpt lat="44.27115" lon="6.19799">
        <ele>1839</ele>
        <time>2021-06-15T23:14:19+02:00</time>
      </trkpt>
      <trkpt lat="44.27102" lon="6.19761">
        <ele>1845</ele>
        <time>2021-06-15T23:14:24+02:00</time>
      </trkpt>
      <trkpt lat="44.27073" lon="6.19725">
        <ele>1846</ele>
        <time>2021-06-15T23:14:29+02:00</time>
      </trkpt>
      <trkpt lat="44.27043" lon="6.19714">
        <ele>1849</ele>
        <time>2021-06-15T23:14:34+02:00</time>
      </trkpt>
      <trkpt lat="44.26968" lon="6.19649">
        <ele>1863</ele>
        <time>2021-06-15T23:14:39+02:00</time>
      </trkpt>
      <trkpt lat="44.26898" lon="6.1961">
        <ele>1879</ele>
        <time>2021-06-15T23:14:44+02:00</time>
      </trkpt>
      <trkpt lat="44.26888" lon="6.19602">
        <ele>1883</ele>
        <time>2021-06-15T23:14:49+02:00</time>
      </trkpt>
      <trkpt lat="44.26867" lon="6.19553">
        <ele>1894</ele>
        <time>2021-06-15T23:14:54+02:00</time>
      </trkpt>
      <trkpt lat="44.26847" lon="6.19491">
        <ele>1906</ele>
        <time>2021-06-15T23:14:59+02:00</time>
      </trkpt>
      <trkpt lat="44.26838" lon="6.19372">
        <ele>1928</ele>
        <time>2021-06-15T23:15:04+02:00</time>
      </trkpt>
      <trkpt lat="44.26854" lon="6.19332">
        <ele>1929</ele>
        <time>2021-06-15T23:15:09+02:00</time>
      </trkpt>
      <trkpt lat="44.26872" lon="6.19307">
        <ele>1926</ele>
        <time>2021-06-15T23:15:14+02:00</time>
      </trkpt>
      <trkpt lat="44.26879" lon="6.19281">
        <ele>1930</ele>
        <time>2021-06-15T23:15:19+02:00</time>
      </trkpt>
      <trkpt lat="44.26886" lon="6.19231">
        <ele>1940</ele>
        <time>2021-06-15T23:15:24+02:00</time>
      </trkpt>
      <trkpt lat="44.26896" lon="6.19171">
        <ele>1947</ele>
        <time>2021-06-15T23:15:29+02:00</time>
      </trkpt>
      <trkpt lat="44.26907" lon="6.19123">
        <ele>1950</ele>
        <time>2021-06-15T23:15:34+02:00</time>
      </trkpt>
      <trkpt lat="44.26929" lon="6.19074">
        <ele>1947</ele>
        <time>2021-06-15T23:15:39+02:00</time>
      </trkpt>
      <trkpt lat="44.26944" lon="6.1903">
        <ele>1942</ele>
        <time>2021-06-15T23:15:44+02:00</time>
      </trkpt>
      <trkpt lat="44.26952" lon="6.18981">
        <ele>1940</ele>
        <time>2021-06-15T23:15:49+02:00</time>
      </trkpt>
      <trkpt lat="44.26961" lon="6.18926">
        <ele>1933</ele>
        <time>2021-06-15T23:15:54+02:00</time>
      </trkpt>
      <trkpt lat="44.26977" lon="6.18892">
        <ele>1922</ele>
        <time>2021-06-15T23:15:59+02:00</time>
      </trkpt>
      <trkpt lat="44.26975" lon="6.18859">
        <ele>1920</ele>
        <time>2021-06-15T23:16:04+02:00</time>
      </trkpt>
      <trkpt lat="44.26982" lon="6.18816">
        <ele>1914</ele>
        <time>2021-06-15T23:16:09+02:00</time>
      </trkpt>
      <trkpt lat="44.26973" lon="6.18791">
        <ele>1919</ele>
        <time>2021-06-15T23:16:14+02:00</time>
      </trkpt>
      <trkpt lat="44.26978" lon="6.18745">
        <ele>1916</ele>
        <time>2021-06-15T23:16:19+02:00</time>
      </trkpt>
      <trkpt lat="44.26983" lon="6.18704">
        <ele>1914</ele>
        <time>2021-06-15T23:16:24+02:00</time>
      </trkpt>
      <trkpt lat="44.26993" lon="6.18673">
        <ele>1912</ele>
        <time>2021-06-15T23:16:29+02:00</time>
      </trkpt>
      <trkpt lat="44.27005" lon="6.18628">
        <ele>1900</ele>
        <time>2021-06-15T23:16:34+02:00</time>
      </trkpt>
      <trkpt lat="44.27008" lon="6.18594">
        <ele>1891</ele>
        <time>2021-06-15T23:16:39+02:00</time>
      </trkpt>
      <trkpt lat="44.26977" lon="6.18624">
        <ele>1904</ele>
        <time>2021-06-15T23:16:44+02:00</time>
      </trkpt>
      <trkpt lat="44.2696" lon="6.18646">
        <ele>1913</ele>
        <time>2021-06-15T23:16:49+02:00</time>
      </trkpt>
      <trkpt lat="44.2695" lon="6.1866">
        <ele>1919</ele>
        <time>2021-06-15T23:16:54+02:00</time>
      </trkpt>
      <trkpt lat="44.26935" lon="6.18672">
        <ele>1926</ele>
        <time>2021-06-15T23:16:59+02:00</time>
      </trkpt>
      <trkpt lat="44.269" lon="6.18695">
        <ele>1934</ele>
        <time>2021-06-15T23:17:04+02:00</time>
      </trkpt>
      <trkpt lat="44.26862" lon="6.18759">
        <ele>1950</ele>
        <time>2021-06-15T23:17:09+02:00</time>
      </trkpt>
      <trkpt lat="44.26868" lon="6.18774">
        <ele>1952</ele>
        <time>2021-06-15T23:17:14+02:00</time>
      </trkpt>
      <trkpt lat="44.26869" lon="6.18792">
        <ele>1956</ele>
        <time>2021-06-15T23:17:19+02:00</time>
      </trkpt>
      <trkpt lat="44.26866" lon="6.18808">
        <ele>1959</ele>
        <time>2021-06-15T23:17:24+02:00</time>
      </trkpt>
      <trkpt lat="44.26856" lon="6.18826">
        <ele>1965</ele>
        <time>2021-06-15T23:17:29+02:00</time>
      </trkpt>
      <trkpt lat="44.26845" lon="6.18846">
        <ele>1973</ele>
        <time>2021-06-15T23:17:34+02:00</time>
      </trkpt>
      <trkpt lat="44.26837" lon="6.18898">
        <ele>1988</ele>
        <time>2021-06-15T23:17:39+02:00</time>
      </trkpt>
      <trkpt lat="44.26834" lon="6.18921">
        <ele>1995</ele>
        <time>2021-06-15T23:17:44+02:00</time>
      </trkpt>
      <trkpt lat="44.26837" lon="6.18941">
        <ele>1994</ele>
        <time>2021-06-15T23:17:49+02:00</time>
      </trkpt>
      <trkpt lat="44.26835" lon="6.18955">
        <ele>1997</ele>
        <time>2021-06-15T23:17:54+02:00</time>
      </trkpt>
      <trkpt lat="44.26814" lon="6.18985">
        <ele>1998</ele>
        <time>2021-06-15T23:17:59+02:00</time>
      </trkpt>
      <trkpt lat="44.26781" lon="6.19023">
        <ele>2002</ele>
        <time>2021-06-15T23:18:04+02:00</time>
      </trkpt>
      <trkpt lat="44.26765" lon="6.19042">
        <ele>2007</ele>
        <time>2021-06-15T23:18:09+02:00</time>
      </trkpt>
      <trkpt lat="44.26755" lon="6.19073">
        <ele>2015</ele>
        <time>2021-06-15T23:18:14+02:00</time>
      </trkpt>
      <trkpt lat="44.2676" lon="6.19103">
        <ele>2016</ele>
        <time>2021-06-15T23:18:19+02:00</time>
      </trkpt>
      <trkpt lat="44.26748" lon="6.19139">
        <ele>2021</ele>
        <time>2021-06-15T23:18:24+02:00</time>
      </trkpt>
      <trkpt lat="44.26735" lon="6.1917">
        <ele>2018</ele>
        <time>2021-06-15T23:18:29+02:00</time>
      </trkpt>
      <trkpt lat="44.26729" lon="6.1919">
        <ele>2017</ele>
        <time>2021-06-15T23:18:34+02:00</time>
      </trkpt>
      <trkpt lat="44.2672" lon="6.19202">
        <ele>2017</ele>
        <time>2021-06-15T23:18:39+02:00</time>
      </trkpt>
      <trkpt lat="44.26717" lon="6.19214">
        <ele>2018</ele>
        <time>2021-06-15T23:18:44+02:00</time>
      </trkpt>
      <trkpt lat="44.26705" lon="6.19229">
        <ele>2021</ele>
        <time>2021-06-15T23:18:49+02:00</time>
      </trkpt>
      <trkpt lat="44.26682" lon="6.19246">
        <ele>2030</ele>
        <time>2021-06-15T23:18:54+02:00</time>
      </trkpt>
      <trkpt lat="44.26659" lon="6.19285">
        <ele>2041</ele>
        <time>2021-06-15T23:18:59+02:00</time>
      </trkpt>
      <trkpt lat="44.26647" lon="6.19312">
        <ele>2047</ele>
        <time>2021-06-15T23:19:04+02:00</time>
      </trkpt>
      <trkpt lat="44.26646" lon="6.19348">
        <ele>2055</ele>
        <time>2021-06-15T23:19:09+02:00</time>
      </trkpt>
      <trkpt lat="44.26595" lon="6.19376">
        <ele>2071</ele>
        <time>2021-06-15T23:19:14+02:00</time>
      </trkpt>
      <trkpt lat="44.26582" lon="6.19379">
        <ele>2075</ele>
        <time>2021-06-15T23:19:19+02:00</time>
      </trkpt>
      <trkpt lat="44.26572" lon="6.1939">
        <ele>2078</ele>
        <time>2021-06-15T23:19:24+02:00</time>
      </trkpt>
      <trkpt lat="44.26551" lon="6.19398">
        <ele>2078</ele>
        <time>2021-06-15T23:19:29+02:00</time>
      </trkpt>
      <trkpt lat="44.26533" lon="6.19398">
        <ele>2074</ele>
        <time>2021-06-15T23:19:34+02:00</time>
      </trkpt>
      <trkpt lat="44.26522" lon="6.19413">
        <ele>2081</ele>
        <time>2021-06-15T23:19:39+02:00</time>
      </trkpt>
      <trkpt lat="44.26523" lon="6.19434">
        <ele>2083</ele>
        <time>2021-06-15T23:19:44+02:00</time>
      </trkpt>
      <trkpt lat="44.26515" lon="6.19452">
        <ele>2082</ele>
        <time>2021-06-15T23:19:49+02:00</time>
      </trkpt>
      <trkpt lat="44.26489" lon="6.19452">
        <ele>2081</ele>
        <time>2021-06-15T23:19:54+02:00</time>
      </trkpt>
      <trkpt lat="44.26463" lon="6.19428">
        <ele>2080</ele>
        <time>2021-06-15T23:19:59+02:00</time>
      </trkpt>
      <trkpt lat="44.26451" lon="6.19404">
        <ele>2070</ele>
        <time>2021-06-15T23:20:04+02:00</time>
      </trkpt>
      <trkpt lat="44.2644" lon="6.19393">
        <ele>2062</ele>
        <time>2021-06-15T23:20:09+02:00</time>
      </trkpt>
      <trkpt lat="44.2642" lon="6.19406">
        <ele>2070</ele>
        <time>2021-06-15T23:20:14+02:00</time>
      </trkpt>
      <trkpt lat="44.26418" lon="6.19418">
        <ele>2077</ele>
        <time>2021-06-15T23:20:19+02:00</time>
      </trkpt>
      <trkpt lat="44.26384" lon="6.19431">
        <ele>2080</ele>
        <time>2021-06-15T23:20:24+02:00</time>
      </trkpt>
      <trkpt lat="44.26366" lon="6.19429">
        <ele>2079</ele>
        <time>2021-06-15T23:20:29+02:00</time>
      </trkpt>
      <trkpt lat="44.26362" lon="6.19417">
        <ele>2076</ele>
        <time>2021-06-15T23:20:34+02:00</time>
      </trkpt>
      <trkpt lat="44.26346" lon="6.19413">
        <ele>2073</ele>
        <time>2021-06-15T23:20:39+02:00</time>
      </trkpt>
      <trkpt lat="44.26333" lon="6.19439">
        <ele>2082</ele>
        <time>2021-06-15T23:20:44+02:00</time>
      </trkpt>
      <trkpt lat="44.26314" lon="6.19438">
        <ele>2083</ele>
        <time>2021-06-15T23:20:49+02:00</time>
      </trkpt>
      <trkpt lat="44.26291" lon="6.19443">
        <ele>2085</ele>
        <time>2021-06-15T23:20:54+02:00</time>
      </trkpt>
      <trkpt lat="44.26242" lon="6.19437">
        <ele>2083</ele>
        <time>2021-06-15T23:20:59+02:00</time>
      </trkpt>
      <trkpt lat="44.26266" lon="6.19468">
        <ele>2091</ele>
        <time>2021-06-15T23:21:04+02:00</time>
      </trkpt>
      <trkpt lat="44.26295" lon="6.19524">
        <ele>2099</ele>
        <time>2021-06-15T23:21:09+02:00</time>
      </trkpt>
      <trkpt lat="44.26324" lon="6.19613">
        <ele>2099</ele>
        <time>2021-06-15T23:21:14+02:00</time>
      </trkpt>
      <trkpt lat="44.26343" lon="6.19682">
        <ele>2093</ele>
        <time>2021-06-15T23:21:19+02:00</time>
      </trkpt>
      <trkpt lat="44.2634" lon="6.19759">
        <ele>2087</ele>
        <time>2021-06-15T23:21:24+02:00</time>
      </trkpt>
      <trkpt lat="44.26352" lon="6.19845">
        <ele>2073</ele>
        <time>2021-06-15T23:21:29+02:00</time>
      </trkpt>
      <trkpt lat="44.26355" lon="6.19948">
        <ele>2064</ele>
        <time>2021-06-15T23:21:34+02:00</time>
      </trkpt>
      <trkpt lat="44.26364" lon="6.20025">
        <ele>2058</ele>
        <time>2021-06-15T23:21:39+02:00</time>
      </trkpt>
      <trkpt lat="44.26352" lon="6.20132">
        <ele>2053</ele>
        <time>2021-06-15T23:21:44+02:00</time>
      </trkpt>
      <trkpt lat="44.26321" lon="6.20201">
        <ele>2050</ele>
        <time>2021-06-15T23:21:49+02:00</time>
      </trkpt>
      <trkpt lat="44.26284" lon="6.20287">
        <ele>2043</ele>
        <time>2021-06-15T23:21:54+02:00</time>
      </trkpt>
      <trkpt lat="44.26257" lon="6.20373">
        <ele>2040</ele>
        <time>2021-06-15T23:21:59+02:00</time>
      </trkpt>
      <trkpt lat="44.26229" lon="6.20458">
        <ele>2039</ele>
        <time>2021-06-15T23:22:04+02:00</time>
      </trkpt>
      <trkpt lat="44.26211" lon="6.2054">
        <ele>2034</ele>
        <time>2021-06-15T23:22:09+02:00</time>
      </trkpt>
      <trkpt lat="44.26216" lon="6.20561">
        <ele>2036</ele>
        <time>2021-06-15T23:22:14+02:00</time>
      </trkpt>
      <trkpt lat="44.26242" lon="6.20589">
        <ele>2043</ele>
        <time>2021-06-15T23:22:19+02:00</time>
      </trkpt>
      <trkpt lat="44.2626" lon="6.20617">
        <ele>2029</ele>
        <time>2021-06-15T23:22:24+02:00</time>
      </trkpt>
      <trkpt lat="44.26268" lon="6.20652">
        <ele>2013</ele>
        <time>2021-06-15T23:22:29+02:00</time>
      </trkpt>
      <trkpt lat="44.26193" lon="6.20675">
        <ele>1993</ele>
        <time>2021-06-15T23:22:34+02:00</time>
      </trkpt>
      <trkpt lat="44.26125" lon="6.20742">
        <ele>1942</ele>
        <time>2021-06-15T23:22:39+02:00</time>
      </trkpt>
      <trkpt lat="44.2609" lon="6.20836">
        <ele>1905</ele>
        <time>2021-06-15T23:22:44+02:00</time>
      </trkpt>
      <trkpt lat="44.26068" lon="6.20935">
        <ele>1884</ele>
        <time>2021-06-15T23:22:49+02:00</time>
      </trkpt>
      <trkpt lat="44.26153" lon="6.20937">
        <ele>1890</ele>
        <time>2021-06-15T23:22:54+02:00</time>
      </trkpt>
      <trkpt lat="44.26188" lon="6.20939">
        <ele>1890</ele>
        <time>2021-06-15T23:22:59+02:00</time>
      </trkpt>
      <trkpt lat="44.26248" lon="6.20941">
        <ele>1889</ele>
        <time>2021-06-15T23:23:04+02:00</time>
      </trkpt>
      <trkpt lat="44.26284" lon="6.20946">
        <ele>1886</ele>
        <time>2021-06-15T23:23:09+02:00</time>
      </trkpt>
      <trkpt lat="44.26313" lon="6.20956">
        <ele>1881</ele>
        <time>2021-06-15T23:23:14+02:00</time>
      </trkpt>
      <trkpt lat="44.26368" lon="6.20967">
        <ele>1874</ele>
        <time>2021-06-15T23:23:19+02:00</time>
      </trkpt>
      <trkpt lat="44.26424" lon="6.20968">
        <ele>1870</ele>
        <time>2021-06-15T23:23:24+02:00</time>
      </trkpt>
      <trkpt lat="44.26475" lon="6.20968">
        <ele>1864</ele>
        <time>2021-06-15T23:23:29+02:00</time>
      </trkpt>
      <trkpt lat="44.26508" lon="6.20981">
        <ele>1856</ele>
        <time>2021-06-15T23:23:34+02:00</time>
      </trkpt>
      <trkpt lat="44.26556" lon="6.2098">
        <ele>1854</ele>
        <time>2021-06-15T23:23:39+02:00</time>
      </trkpt>
      <trkpt lat="44.26629" lon="6.20993">
        <ele>1848</ele>
        <time>2021-06-15T23:23:44+02:00</time>
      </trkpt>
      <trkpt lat="44.26672" lon="6.21017">
        <ele>1839</ele>
        <time>2021-06-15T23:23:49+02:00</time>
      </trkpt>
      <trkpt lat="44.26717" lon="6.21045">
        <ele>1831</ele>
        <time>2021-06-15T23:23:54+02:00</time>
      </trkpt>
      <trkpt lat="44.26747" lon="6.21061">
        <ele>1832</ele>
        <time>2021-06-15T23:23:59+02:00</time>
      </trkpt>
      <trkpt lat="44.26778" lon="6.21057">
        <ele>1827</ele>
        <time>2021-06-15T23:24:04+02:00</time>
      </trkpt>
      <trkpt lat="44.26804" lon="6.21053">
        <ele>1822</ele>
        <time>2021-06-15T23:24:09+02:00</time>
      </trkpt>
      <trkpt lat="44.26831" lon="6.21024">
        <ele>1821</ele>
        <time>2021-06-15T23:24:14+02:00</time>
      </trkpt>
      <trkpt lat="44.26861" lon="6.20974">
        <ele>1816</ele>
        <time>2021-06-15T23:24:19+02:00</time>
      </trkpt>
      <trkpt lat="44.26891" lon="6.20928">
        <ele>1810</ele>
        <time>2021-06-15T23:24:24+02:00</time>
      </trkpt>
      <trkpt lat="44.26909" lon="6.20894">
        <ele>1803</ele>
        <time>2021-06-15T23:24:29+02:00</time>
      </trkpt>
      <trkpt lat="44.26925" lon="6.20826">
        <ele>1790</ele>
        <time>2021-06-15T23:24:34+02:00</time>
      </trkpt>
      <trkpt lat="44.26932" lon="6.20794">
        <ele>1780</ele>
        <time>2021-06-15T23:24:39+02:00</time>
      </trkpt>
      <trkpt lat="44.26943" lon="6.20752">
        <ele>1767</ele>
        <time>2021-06-15T23:24:44+02:00</time>
      </trkpt>
      <trkpt lat="44.26964" lon="6.20662">
        <ele>1736</ele>
        <time>2021-06-15T23:24:49+02:00</time>
      </trkpt>
      <trkpt lat="44.26977" lon="6.20543">
        <ele>1711</ele>
        <time>2021-06-15T23:24:54+02:00</time>
      </trkpt>
      <trkpt lat="44.26987" lon="6.20525">
        <ele>1705</ele>
        <time>2021-06-15T23:24:59+02:00</time>
      </trkpt>
      <trkpt lat="44.26997" lon="6.205">
        <ele>1699</ele>
        <time>2021-06-15T23:25:04+02:00</time>
      </trkpt>
      <trkpt lat="44.26993" lon="6.20461">
        <ele>1703</ele>
        <time>2021-06-15T23:25:09+02:00</time>
      </trkpt>
      <trkpt lat="44.27018" lon="6.20428">
        <ele>1700</ele>
        <time>2021-06-15T23:25:14+02:00</time>
      </trkpt>
      <trkpt lat="44.27037" lon="6.20398">
        <ele>1700</ele>
        <time>2021-06-15T23:25:19+02:00</time>
      </trkpt>
      <trkpt lat="44.27057" lon="6.20326">
        <ele>1705</ele>
        <time>2021-06-15T23:25:24+02:00</time>
      </trkpt>
      <trkpt lat="44.27083" lon="6.20298">
        <ele>1700</ele>
        <time>2021-06-15T23:25:29+02:00</time>
      </trkpt>
      <trkpt lat="44.27109" lon="6.20276">
        <ele>1707</ele>
        <time>2021-06-15T23:25:34+02:00</time>
      </trkpt>
      <trkpt lat="44.27149" lon="6.20289">
        <ele>1705</ele>
        <time>2021-06-15T23:25:39+02:00</time>
      </trkpt>
      <trkpt lat="44.27184" lon="6.20313">
        <ele>1701</ele>
        <time>2021-06-15T23:25:44+02:00</time>
      </trkpt>
      <trkpt lat="44.27199" lon="6.20327">
        <ele>1699</ele>
        <time>2021-06-15T23:25:49+02:00</time>
      </trkpt>
      <trkpt lat="44.27212" lon="6.20348">
        <ele>1696</ele>
        <time>2021-06-15T23:25:54+02:00</time>
      </trkpt>
      <trkpt lat="44.27227" lon="6.20376">
        <ele>1692</ele>
        <time>2021-06-15T23:25:59+02:00</time>
      </trkpt>
      <trkpt lat="44.27249" lon="6.20401">
        <ele>1687</ele>
        <time>2021-06-15T23:26:04+02:00</time>
      </trkpt>
      <trkpt lat="44.27274" lon="6.20429">
        <ele>1680</ele>
        <time>2021-06-15T23:26:09+02:00</time>
      </trkpt>
      <trkpt lat="44.273" lon="6.2044">
        <ele>1676</ele>
        <time>2021-06-15T23:26:14+02:00</time>
      </trkpt>
      <trkpt lat="44.27335" lon="6.20479">
        <ele>1666</ele>
        <time>2021-06-15T23:26:19+02:00</time>
      </trkpt>
      <trkpt lat="44.27358" lon="6.20507">
        <ele>1658</ele>
        <time>2021-06-15T23:26:24+02:00</time>
      </trkpt>
      <trkpt lat="44.27384" lon="6.20516">
        <ele>1652</ele>
        <time>2021-06-15T23:26:29+02:00</time>
      </trkpt>
      <trkpt lat="44.27441" lon="6.20511">
        <ele>1641</ele>
        <time>2021-06-15T23:26:34+02:00</time>
      </trkpt>
      <trkpt lat="44.27507" lon="6.20507">
        <ele>1627</ele>
        <time>2021-06-15T23:26:39+02:00</time>
      </trkpt>
      <trkpt lat="44.27563" lon="6.20471">
        <ele>1622</ele>
        <time>2021-06-15T23:26:44+02:00</time>
      </trkpt>
      <trkpt lat="44.27605" lon="6.20449">
        <ele>1616</ele>
        <time>2021-06-15T23:26:49+02:00</time>
      </trkpt>
      <trkpt lat="44.27646" lon="6.20402">
        <ele>1608</ele>
        <time>2021-06-15T23:26:54+02:00</time>
      </trkpt>
      <trkpt lat="44.27678" lon="6.2036">
        <ele>1601</ele>
        <time>2021-06-15T23:26:59+02:00</time>
      </trkpt>
      <trkpt lat="44.27706" lon="6.20318">
        <ele>1597</ele>
        <time>2021-06-15T23:27:04+02:00</time>
      </trkpt>
      <trkpt lat="44.27722" lon="6.20271">
        <ele>1597</ele>
        <time>2021-06-15T23:27:09+02:00</time>
      </trkpt>
      <trkpt lat="44.27734" lon="6.20221">
        <ele>1597</ele>
        <time>2021-06-15T23:27:14+02:00</time>
      </trkpt>
      <trkpt lat="44.27733" lon="6.20183">
        <ele>1599</ele>
        <time>2021-06-15T23:27:19+02:00</time>
      </trkpt>
      <trkpt lat="44.27752" lon="6.20149">
        <ele>1595</ele>
        <time>2021-06-15T23:27:24+02:00</time>
      </trkpt>
      <trkpt lat="44.27762" lon="6.20125">
        <ele>1591</ele>
        <time>2021-06-15T23:27:29+02:00</time>
      </trkpt>
      <trkpt lat="44.27768" lon="6.201">
        <ele>1589</ele>
        <time>2021-06-15T23:27:34+02:00</time>
      </trkpt>
      <trkpt lat="44.27769" lon="6.20076">
        <ele>1588</ele>
        <time>2021-06-15T23:27:39+02:00</time>
      </trkpt>
      <trkpt lat="44.27765" lon="6.20059">
        <ele>1588</ele>
        <time>2021-06-15T23:27:44+02:00</time>
      </trkpt>
      <trkpt lat="44.27749" lon="6.20041">
        <ele>1591</ele>
        <time>2021-06-15T23:27:49+02:00</time>
      </trkpt>
      <trkpt lat="44.27744" lon="6.20022">
        <ele>1591</ele>
        <time>2021-06-15T23:27:54+02:00</time>
      </trkpt>
      <trkpt lat="44.27744" lon="6.19976">
        <ele>1594</ele>
        <time>2021-06-15T23:27:59+02:00</time>
      </trkpt>
      <trkpt lat="44.27741" lon="6.1994">
        <ele>1599</ele>
        <time>2021-06-15T23:28:04+02:00</time>
      </trkpt>
      <trkpt lat="44.27757" lon="6.19948">
        <ele>1596</ele>
        <time>2021-06-15T23:28:09+02:00</time>
      </trkpt>
      <trkpt lat="44.27781" lon="6.19944">
        <ele>1592</ele>
        <time>2021-06-15T23:28:14+02:00</time>
      </trkpt>
      <trkpt lat="44.27802" lon="6.19926">
        <ele>1592</ele>
        <time>2021-06-15T23:28:19+02:00</time>
      </trkpt>
      <trkpt lat="44.27834" lon="6.19869">
        <ele>1599</ele>
        <time>2021-06-15T23:28:24+02:00</time>
      </trkpt>
      <trkpt lat="44.27878" lon="6.19788">
        <ele>1589</ele>
        <time>2021-06-15T23:28:29+02:00</time>
      </trkpt>
      <trkpt lat="44.2788" lon="6.19773">
        <ele>1587</ele>
        <time>2021-06-15T23:28:34+02:00</time>
      </trkpt>
      <trkpt lat="44.27878" lon="6.1974">
        <ele>1586</ele>
        <time>2021-06-15T23:28:39+02:00</time>
      </trkpt>
      <trkpt lat="44.27828" lon="6.19644">
        <ele>1597</ele>
        <time>2021-06-15T23:28:44+02:00</time>
      </trkpt>
      <trkpt lat="44.27823" lon="6.19621">
        <ele>1601</ele>
        <time>2021-06-15T23:28:49+02:00</time>
      </trkpt>
      <trkpt lat="44.27826" lon="6.196">
        <ele>1603</ele>
        <time>2021-06-15T23:28:54+02:00</time>
      </trkpt>
      <trkpt lat="44.27865" lon="6.1955">
        <ele>1599</ele>
        <time>2021-06-15T23:28:59+02:00</time>
      </trkpt>
      <trkpt lat="44.27872" lon="6.1953">
        <ele>1600</ele>
        <time>2021-06-15T23:29:04+02:00</time>
      </trkpt>
      <trkpt lat="44.27883" lon="6.19496">
        <ele>1602</ele>
        <time>2021-06-15T23:29:09+02:00</time>
      </trkpt>
      <trkpt lat="44.27888" lon="6.19471">
        <ele>1604</ele>
        <time>2021-06-15T23:29:14+02:00</time>
      </trkpt>
      <trkpt lat="44.27896" lon="6.1943">
        <ele>1606</ele>
        <time>2021-06-15T23:29:19+02:00</time>
      </trkpt>
      <trkpt lat="44.27904" lon="6.19357">
        <ele>1612</ele>
        <time>2021-06-15T23:29:24+02:00</time>
      </trkpt>
      <trkpt lat="44.27922" lon="6.19333">
        <ele>1592</ele>
        <time>2021-06-15T23:29:29+02:00</time>
      </trkpt>
      <trkpt lat="44.27964" lon="6.19301">
        <ele>1604</ele>
        <time>2021-06-15T23:29:34+02:00</time>
      </trkpt>
      <trkpt lat="44.27978" lon="6.19277">
        <ele>1603</ele>
        <time>2021-06-15T23:29:39+02:00</time>
      </trkpt>
      <trkpt lat="44.28015" lon="6.19218">
        <ele>1598</ele>
        <time>2021-06-15T23:29:44+02:00</time>
      </trkpt>
      <trkpt lat="44.28025" lon="6.19169">
        <ele>1598</ele>
        <time>2021-06-15T23:29:49+02:00</time>
      </trkpt>
      <trkpt lat="44.28036" lon="6.19117">
        <ele>1597</ele>
        <time>2021-06-15T23:29:54+02:00</time>
      </trkpt>
      <trkpt lat="44.28084" lon="6.19027">
        <ele>1587</ele>
        <time>2021-06-15T23:29:59+02:00</time>
      </trkpt>
      <trkpt lat="44.28091" lon="6.18956">
        <ele>1585</ele>
        <time>2021-06-15T23:30:04+02:00</time>
      </trkpt>
      <trkpt lat="44.2807" lon="6.18916">
        <ele>1588</ele>
        <time>2021-06-15T23:30:09+02:00</time>
      </trkpt>
      <trkpt lat="44.28068" lon="6.18863">
        <ele>1586</ele>
        <time>2021-06-15T23:30:14+02:00</time>
      </trkpt>
      <trkpt lat="44.28067" lon="6.18823">
        <ele>1583</ele>
        <time>2021-06-15T23:30:19+02:00</time>
      </trkpt>
      <trkpt lat="44.28081" lon="6.18799">
        <ele>1581</ele>
        <time>2021-06-15T23:30:24+02:00</time>
      </trkpt>
      <trkpt lat="44.28106" lon="6.18758">
        <ele>1575</ele>
        <time>2021-06-15T23:30:29+02:00</time>
      </trkpt>
      <trkpt lat="44.28119" lon="6.18738">
        <ele>1572</ele>
        <time>2021-06-15T23:30:34+02:00</time>
      </trkpt>
      <trkpt lat="44.28134" lon="6.18735">
        <ele>1570</ele>
        <time>2021-06-15T23:30:39+02:00</time>
      </trkpt>
      <trkpt lat="44.28143" lon="6.18761">
        <ele>1571</ele>
        <time>2021-06-15T23:30:44+02:00</time>
      </trkpt>
      <trkpt lat="44.28151" lon="6.1875">
        <ele>1567</ele>
        <time>2021-06-15T23:30:49+02:00</time>
      </trkpt>
      <trkpt lat="44.28157" lon="6.18717">
        <ele>1566</ele>
        <time>2021-06-15T23:30:54+02:00</time>
      </trkpt>
      <trkpt lat="44.28169" lon="6.18698">
        <ele>1563</ele>
        <time>2021-06-15T23:30:59+02:00</time>
      </trkpt>
      <trkpt lat="44.2817" lon="6.18685">
        <ele>1562</ele>
        <time>2021-06-15T23:31:04+02:00</time>
      </trkpt>
      <trkpt lat="44.28157" lon="6.18679">
        <ele>1562</ele>
        <time>2021-06-15T23:31:09+02:00</time>
      </trkpt>
      <trkpt lat="44.28133" lon="6.18681">
        <ele>1564</ele>
        <time>2021-06-15T23:31:14+02:00</time>
      </trkpt>
      <trkpt lat="44.28087" lon="6.18666">
        <ele>1564</ele>
        <time>2021-06-15T23:31:19+02:00</time>
      </trkpt>
      <trkpt lat="44.28051" lon="6.18655">
        <ele>1564</ele>
        <time>2021-06-15T23:31:24+02:00</time>
      </trkpt>
      <trkpt lat="44.28026" lon="6.18652">
        <ele>1565</ele>
        <time>2021-06-15T23:31:29+02:00</time>
      </trkpt>
      <trkpt lat="44.27989" lon="6.18664">
        <ele>1568</ele>
        <time>2021-06-15T23:31:34+02:00</time>
      </trkpt>
      <trkpt lat="44.2797" lon="6.18659">
        <ele>1571</ele>
        <time>2021-06-15T23:31:39+02:00</time>
      </trkpt>
      <trkpt lat="44.27965" lon="6.18642">
        <ele>1573</ele>
        <time>2021-06-15T23:31:44+02:00</time>
      </trkpt>
      <trkpt lat="44.27988" lon="6.18609">
        <ele>1571</ele>
        <time>2021-06-15T23:31:49+02:00</time>
      </trkpt>
      <trkpt lat="44.28004" lon="6.18588">
        <ele>1568</ele>
        <time>2021-06-15T23:31:54+02:00</time>
      </trkpt>
      <trkpt lat="44.28057" lon="6.185">
        <ele>1562</ele>
        <time>2021-06-15T23:31:59+02:00</time>
      </trkpt>
      <trkpt lat="44.28077" lon="6.18436">
        <ele>1560</ele>
        <time>2021-06-15T23:32:04+02:00</time>
      </trkpt>
      <trkpt lat="44.28078" lon="6.18403">
        <ele>1560</ele>
        <time>2021-06-15T23:32:09+02:00</time>
      </trkpt>
      <trkpt lat="44.28091" lon="6.18364">
        <ele>1557</ele>
        <time>2021-06-15T23:32:14+02:00</time>
      </trkpt>
      <trkpt lat="44.28116" lon="6.18326">
        <ele>1553</ele>
        <time>2021-06-15T23:32:19+02:00</time>
      </trkpt>
      <trkpt lat="44.28143" lon="6.1831">
        <ele>1550</ele>
        <time>2021-06-15T23:32:24+02:00</time>
      </trkpt>
      <trkpt lat="44.28142" lon="6.18241">
        <ele>1551</ele>
        <time>2021-06-15T23:32:29+02:00</time>
      </trkpt>
      <trkpt lat="44.28121" lon="6.18206">
        <ele>1552</ele>
        <time>2021-06-15T23:32:34+02:00</time>
      </trkpt>
      <trkpt lat="44.28103" lon="6.18156">
        <ele>1553</ele>
        <time>2021-06-15T23:32:39+02:00</time>
      </trkpt>
      <trkpt lat="44.281" lon="6.18114">
        <ele>1554</ele>
        <time>2021-06-15T23:32:44+02:00</time>
      </trkpt>
      <trkpt lat="44.28102" lon="6.18049">
        <ele>1550</ele>
        <time>2021-06-15T23:32:49+02:00</time>
      </trkpt>
      <trkpt lat="44.2812" lon="6.17984">
        <ele>1542</ele>
        <time>2021-06-15T23:32:54+02:00</time>
      </trkpt>
      <trkpt lat="44.28137" lon="6.17958">
        <ele>1537</ele>
        <time>2021-06-15T23:32:59+02:00</time>
      </trkpt>
      <trkpt lat="44.28142" lon="6.17941">
        <ele>1535</ele>
        <time>2021-06-15T23:33:04+02:00</time>
      </trkpt>
      <trkpt lat="44.28156" lon="6.17932">
        <ele>1536</ele>
        <time>2021-06-15T23:33:09+02:00</time>
      </trkpt>
      <trkpt lat="44.28159" lon="6.17921">
        <ele>1536</ele>
        <time>2021-06-15T23:33:14+02:00</time>
      </trkpt>
      <trkpt lat="44.28178" lon="6.17917">
        <ele>1545</ele>
        <time>2021-06-15T23:33:19+02:00</time>
      </trkpt>
      <trkpt lat="44.28202" lon="6.17924">
        <ele>1541</ele>
        <time>2021-06-15T23:33:24+02:00</time>
      </trkpt>
      <trkpt lat="44.2822" lon="6.17919">
        <ele>1542</ele>
        <time>2021-06-15T23:33:29+02:00</time>
      </trkpt>
      <trkpt lat="44.28212" lon="6.17947">
        <ele>1544</ele>
        <time>2021-06-15T23:33:34+02:00</time>
      </trkpt>
      <trkpt lat="44.28214" lon="6.18017">
        <ele>1550</ele>
        <time>2021-06-15T23:33:39+02:00</time>
      </trkpt>
      <trkpt lat="44.28214" lon="6.18083">
        <ele>1552</ele>
        <time>2021-06-15T23:33:44+02:00</time>
      </trkpt>
      <trkpt lat="44.28222" lon="6.18141">
        <ele>1553</ele>
        <time>2021-06-15T23:33:49+02:00</time>
      </trkpt>
      <trkpt lat="44.28254" lon="6.18208">
        <ele>1551</ele>
        <time>2021-06-15T23:33:54+02:00</time>
      </trkpt>
      <trkpt lat="44.28311" lon="6.18208">
        <ele>1552</ele>
        <time>2021-06-15T23:33:59+02:00</time>
      </trkpt>
      <trkpt lat="44.28371" lon="6.18217">
        <ele>1550</ele>
        <time>2021-06-15T23:34:04+02:00</time>
      </trkpt>
      <trkpt lat="44.28438" lon="6.18214">
        <ele>1549</ele>
        <time>2021-06-15T23:34:09+02:00</time>
      </trkpt>
      <trkpt lat="44.28523" lon="6.18203">
        <ele>1545</ele>
        <time>2021-06-15T23:34:14+02:00</time>
      </trkpt>
      <trkpt lat="44.28549" lon="6.18204">
        <ele>1542</ele>
        <time>2021-06-15T23:34:19+02:00</time>
      </trkpt>
      <trkpt lat="44.28567" lon="6.18194">
        <ele>1543</ele>
        <time>2021-06-15T23:34:24+02:00</time>
      </trkpt>
      <trkpt lat="44.28591" lon="6.18166">
        <ele>1544</ele>
        <time>2021-06-15T23:34:29+02:00</time>
      </trkpt>
      <trkpt lat="44.2861" lon="6.18163">
        <ele>1542</ele>
        <time>2021-06-15T23:34:34+02:00</time>
      </trkpt>
      <trkpt lat="44.28636" lon="6.18146">
        <ele>1542</ele>
        <time>2021-06-15T23:34:39+02:00</time>
      </trkpt>
      <trkpt lat="44.28647" lon="6.18129">
        <ele>1543</ele>
        <time>2021-06-15T23:34:44+02:00</time>
      </trkpt>
      <trkpt lat="44.28658" lon="6.18118">
        <ele>1543</ele>
        <time>2021-06-15T23:34:49+02:00</time>
      </trkpt>
      <trkpt lat="44.28673" lon="6.18115">
        <ele>1541</ele>
        <time>2021-06-15T23:34:54+02:00</time>
      </trkpt>
      <trkpt lat="44.28686" lon="6.18126">
        <ele>1538</ele>
        <time>2021-06-15T23:34:59+02:00</time>
      </trkpt>
      <trkpt lat="44.28708" lon="6.18141">
        <ele>1532</ele>
        <time>2021-06-15T23:35:04+02:00</time>
      </trkpt>
      <trkpt lat="44.28718" lon="6.18159">
        <ele>1527</ele>
        <time>2021-06-15T23:35:09+02:00</time>
      </trkpt>
      <trkpt lat="44.2872" lon="6.18175">
        <ele>1524</ele>
        <time>2021-06-15T23:35:14+02:00</time>
      </trkpt>
      <trkpt lat="44.28728" lon="6.18207">
        <ele>1518</ele>
        <time>2021-06-15T23:35:19+02:00</time>
      </trkpt>
      <trkpt lat="44.2874" lon="6.18225">
        <ele>1513</ele>
        <time>2021-06-15T23:35:24+02:00</time>
      </trkpt>
      <trkpt lat="44.28763" lon="6.18219">
        <ele>1511</ele>
        <time>2021-06-15T23:35:29+02:00</time>
      </trkpt>
      <trkpt lat="44.28787" lon="6.18202">
        <ele>1511</ele>
        <time>2021-06-15T23:35:34+02:00</time>
      </trkpt>
      <trkpt lat="44.28799" lon="6.1818">
        <ele>1514</ele>
        <time>2021-06-15T23:35:39+02:00</time>
      </trkpt>
      <trkpt lat="44.28825" lon="6.1816">
        <ele>1516</ele>
        <time>2021-06-15T23:35:44+02:00</time>
      </trkpt>
      <trkpt lat="44.28869" lon="6.18143">
        <ele>1514</ele>
        <time>2021-06-15T23:35:49+02:00</time>
      </trkpt>
      <trkpt lat="44.28854" lon="6.18244">
        <ele>1500</ele>
        <time>2021-06-15T23:35:54+02:00</time>
      </trkpt>
      <trkpt lat="44.28875" lon="6.18259">
        <ele>1499</ele>
        <time>2021-06-15T23:35:59+02:00</time>
      </trkpt>
      <trkpt lat="44.2888" lon="6.18271">
        <ele>1497</ele>
        <time>2021-06-15T23:36:04+02:00</time>
      </trkpt>
      <trkpt lat="44.28887" lon="6.18279">
        <ele>1497</ele>
        <time>2021-06-15T23:36:09+02:00</time>
      </trkpt>
      <trkpt lat="44.28902" lon="6.1825">
        <ele>1502</ele>
        <time>2021-06-15T23:36:14+02:00</time>
      </trkpt>
      <trkpt lat="44.28923" lon="6.18231">
        <ele>1503</ele>
        <time>2021-06-15T23:36:19+02:00</time>
      </trkpt>
      <trkpt lat="44.28945" lon="6.18238">
        <ele>1498</ele>
        <time>2021-06-15T23:36:24+02:00</time>
      </trkpt>
      <trkpt lat="44.28937" lon="6.18257">
        <ele>1498</ele>
        <time>2021-06-15T23:36:29+02:00</time>
      </trkpt>
      <trkpt lat="44.28954" lon="6.18276">
        <ele>1492</ele>
        <time>2021-06-15T23:36:34+02:00</time>
      </trkpt>
      <trkpt lat="44.28955" lon="6.18306">
        <ele>1488</ele>
        <time>2021-06-15T23:36:39+02:00</time>
      </trkpt>
      <trkpt lat="44.28956" lon="6.18323">
        <ele>1486</ele>
        <time>2021-06-15T23:36:44+02:00</time>
      </trkpt>
      <trkpt lat="44.28967" lon="6.1836">
        <ele>1480</ele>
        <time>2021-06-15T23:36:49+02:00</time>
      </trkpt>
      <trkpt lat="44.28981" lon="6.18369">
        <ele>1477</ele>
        <time>2021-06-15T23:36:54+02:00</time>
      </trkpt>
      <trkpt lat="44.28999" lon="6.18365">
        <ele>1476</ele>
        <time>2021-06-15T23:36:59+02:00</time>
      </trkpt>
      <trkpt lat="44.29024" lon="6.18343">
        <ele>1472</ele>
        <time>2021-06-15T23:37:04+02:00</time>
      </trkpt>
      <trkpt lat="44.29047" lon="6.18342">
        <ele>1465</ele>
        <time>2021-06-15T23:37:09+02:00</time>
      </trkpt>
      <trkpt lat="44.29096" lon="6.18398">
        <ele>1449</ele>
        <time>2021-06-15T23:37:14+02:00</time>
      </trkpt>
      <trkpt lat="44.29113" lon="6.184">
        <ele>1445</ele>
        <time>2021-06-15T23:37:19+02:00</time>
      </trkpt>
      <trkpt lat="44.29155" lon="6.18404">
        <ele>1435</ele>
        <time>2021-06-15T23:37:24+02:00</time>
      </trkpt>
      <trkpt lat="44.29162" lon="6.18404">
        <ele>1434</ele>
        <time>2021-06-15T23:37:29+02:00</time>
      </trkpt>
      <trkpt lat="44.29161" lon="6.18373">
        <ele>1433</ele>
        <time>2021-06-15T23:37:34+02:00</time>
      </trkpt>
      <trkpt lat="44.29152" lon="6.18345">
        <ele>1435</ele>
        <time>2021-06-15T23:37:39+02:00</time>
      </trkpt>
      <trkpt lat="44.29164" lon="6.18313">
        <ele>1433</ele>
        <time>2021-06-15T23:37:44+02:00</time>
      </trkpt>
      <trkpt lat="44.29164" lon="6.18281">
        <ele>1436</ele>
        <time>2021-06-15T23:37:49+02:00</time>
      </trkpt>
      <trkpt lat="44.29169" lon="6.1826">
        <ele>1438</ele>
        <time>2021-06-15T23:37:54+02:00</time>
      </trkpt>
      <trkpt lat="44.29181" lon="6.18251">
        <ele>1437</ele>
        <time>2021-06-15T23:37:59+02:00</time>
      </trkpt>
      <trkpt lat="44.29194" lon="6.18256">
        <ele>1434</ele>
        <time>2021-06-15T23:38:04+02:00</time>
      </trkpt>
      <trkpt lat="44.29216" lon="6.18264">
        <ele>1430</ele>
        <time>2021-06-15T23:38:09+02:00</time>
      </trkpt>
      <trkpt lat="44.29235" lon="6.18267">
        <ele>1427</ele>
        <time>2021-06-15T23:38:14+02:00</time>
      </trkpt>
      <trkpt lat="44.29249" lon="6.18264">
        <ele>1425</ele>
        <time>2021-06-15T23:38:19+02:00</time>
      </trkpt>
    </trkseg>
  </trk>
</gpx>